sensor_id;sensor_type;location;lat;lon;timestamp;pressure;altitude;pressure_sealevel;temperature;humidity
67980;BME280;54760;47.490;19.030;2023-04-27T00:00:48;100263.41;;;7.28;52.50
67980;BME280;54760;47.490;19.030;2023-04-27T00:03:13;100272.41;;;6.93;53.60
67980;BME280;54760;47.490;19.030;2023-04-27T00:05:38;100272.00;;;6.95;53.77
67980;BME280;54760;47.490;19.030;2023-04-27T00:08:05;100267.75;;;6.97;53.48
67980;BME280;54760;47.490;19.030;2023-04-27T00:10:31;100268.13;;;7.00;53.96
67980;BME280;54760;47.490;19.030;2023-04-27T00:12:56;100273.94;;;7.09;53.95
67980;BME280;54760;47.490;19.030;2023-04-27T00:15:22;100270.81;;;7.21;53.38
67980;BME280;54760;47.490;19.030;2023-04-27T00:17:47;100273.12;;;7.40;52.70
67980;BME280;54760;47.490;19.030;2023-04-27T00:20:13;100267.72;;;7.01;53.21
67980;BME280;54760;47.490;19.030;2023-04-27T00:22:39;100278.59;;;7.33;52.59
67980;BME280;54760;47.490;19.030;2023-04-27T00:25:05;100274.66;;;7.55;51.92
67980;BME280;54760;47.490;19.030;2023-04-27T00:27:30;100271.50;;;7.71;51.34
67980;BME280;54760;47.490;19.030;2023-04-27T00:29:56;100265.25;;;7.74;50.89
67980;BME280;54760;47.490;19.030;2023-04-27T00:32:21;100272.69;;;7.59;51.12
67980;BME280;54760;47.490;19.030;2023-04-27T00:34:47;100273.88;;;7.51;51.48
67980;BME280;54760;47.490;19.030;2023-04-27T00:37:12;100274.59;;;7.69;51.07
67980;BME280;54760;47.490;19.030;2023-04-27T00:39:37;100269.16;;;7.69;50.82
67980;BME280;54760;47.490;19.030;2023-04-27T00:42:03;100266.84;;;7.54;50.90
67980;BME280;54760;47.490;19.030;2023-04-27T00:44:28;100266.12;;;7.28;51.75
67980;BME280;54760;47.490;19.030;2023-04-27T00:46:54;100268.00;;;7.63;51.36
67980;BME280;54760;47.490;19.030;2023-04-27T00:49:20;100260.69;;;7.32;52.07
67980;BME280;54760;47.490;19.030;2023-04-27T00:51:49;100270.41;;;7.40;52.35
67980;BME280;54760;47.490;19.030;2023-04-27T00:54:15;100262.62;;;7.35;52.96
67980;BME280;54760;47.490;19.030;2023-04-27T00:56:43;100266.19;;;7.18;54.04
67980;BME280;54760;47.490;19.030;2023-04-27T00:59:08;100263.81;;;7.09;54.30
67980;BME280;54760;47.490;19.030;2023-04-27T01:01:33;100269.31;;;6.99;54.62
67980;BME280;54760;47.490;19.030;2023-04-27T01:03:59;100265.38;;;7.17;54.12
67980;BME280;54760;47.490;19.030;2023-04-27T01:06:24;100267.72;;;7.05;54.62
67980;BME280;54760;47.490;19.030;2023-04-27T01:08:49;100275.91;;;6.83;55.04
67980;BME280;54760;47.490;19.030;2023-04-27T01:11:15;100269.28;;;6.84;55.08
67980;BME280;54760;47.490;19.030;2023-04-27T01:13:41;100269.28;;;6.91;54.89
67980;BME280;54760;47.490;19.030;2023-04-27T01:16:06;100266.53;;;7.20;53.89
67980;BME280;54760;47.490;19.030;2023-04-27T01:18:32;100262.28;;;6.90;54.67
67980;BME280;54760;47.490;19.030;2023-04-27T01:20:58;100270.06;;;6.95;55.05
67980;BME280;54760;47.490;19.030;2023-04-27T01:23:24;100270.84;;;7.07;55.04
67980;BME280;54760;47.490;19.030;2023-04-27T01:25:50;100273.94;;;6.63;55.86
67980;BME280;54760;47.490;19.030;2023-04-27T01:28:15;100275.91;;;6.76;55.63
67980;BME280;54760;47.490;19.030;2023-04-27T01:30:41;100277.44;;;6.67;56.17
67980;BME280;54760;47.490;19.030;2023-04-27T01:33:06;100269.28;;;7.06;54.39
67980;BME280;54760;47.490;19.030;2023-04-27T01:35:31;100278.59;;;6.62;55.89
67980;BME280;54760;47.490;19.030;2023-04-27T01:37:57;100280.16;;;6.84;55.71
67980;BME280;54760;47.490;19.030;2023-04-27T01:40:22;100281.75;;;6.92;55.29
67980;BME280;54760;47.490;19.030;2023-04-27T01:42:48;100285.25;;;6.79;55.78
67980;BME280;54760;47.490;19.030;2023-04-27T01:45:13;100287.16;;;6.68;55.80
67980;BME280;54760;47.490;19.030;2023-04-27T01:47:38;100284.84;;;6.80;56.04
67980;BME280;54760;47.490;19.030;2023-04-27T01:50:05;100289.13;;;6.74;56.31
67980;BME280;54760;47.490;19.030;2023-04-27T01:52:30;100285.59;;;6.70;56.21
67980;BME280;54760;47.490;19.030;2023-04-27T01:54:56;100280.16;;;6.56;56.23
67980;BME280;54760;47.490;19.030;2023-04-27T01:57:21;100284.84;;;6.80;55.93
67980;BME280;54760;47.490;19.030;2023-04-27T01:59:47;100283.69;;;7.03;55.08
67980;BME280;54760;47.490;19.030;2023-04-27T02:02:12;100296.09;;;6.54;56.37
67980;BME280;54760;47.490;19.030;2023-04-27T02:04:37;100289.88;;;6.57;56.48
67980;BME280;54760;47.490;19.030;2023-04-27T02:07:03;100291.06;;;6.63;56.43
67980;BME280;54760;47.490;19.030;2023-04-27T02:09:28;100298.78;;;6.47;57.11
67980;BME280;54760;47.490;19.030;2023-04-27T02:11:54;100304.16;;;6.22;57.02
67980;BME280;54760;47.490;19.030;2023-04-27T02:14:19;100297.19;;;6.25;56.74
67980;BME280;54760;47.490;19.030;2023-04-27T02:16:44;100294.91;;;6.55;56.04
67980;BME280;54760;47.490;19.030;2023-04-27T02:19:10;100300.69;;;6.36;57.18
67980;BME280;54760;47.490;19.030;2023-04-27T02:21:35;100292.56;;;6.50;56.92
67980;BME280;54760;47.490;19.030;2023-04-27T02:24:01;100312.63;;;6.06;58.10
67980;BME280;54760;47.490;19.030;2023-04-27T02:26:26;100302.56;;;6.11;58.12
67980;BME280;54760;47.490;19.030;2023-04-27T02:28:55;100311.94;;;6.31;57.65
67980;BME280;54760;47.490;19.030;2023-04-27T02:31:23;100310.47;;;6.62;56.86
67980;BME280;54760;47.490;19.030;2023-04-27T02:33:49;100301.53;;;6.68;56.72
67980;BME280;54760;47.490;19.030;2023-04-27T02:36:14;100311.16;;;6.27;57.79
67980;BME280;54760;47.490;19.030;2023-04-27T02:38:40;100311.56;;;6.29;57.79
67980;BME280;54760;47.490;19.030;2023-04-27T02:41:05;100321.25;;;6.23;58.14
67980;BME280;54760;47.490;19.030;2023-04-27T02:43:31;100321.97;;;6.13;58.40
67980;BME280;54760;47.490;19.030;2023-04-27T02:45:56;100327.06;;;6.18;58.58
67980;BME280;54760;47.490;19.030;2023-04-27T02:48:22;100327.00;;;6.00;58.64
67980;BME280;54760;47.490;19.030;2023-04-27T02:50:47;100327.03;;;6.14;58.14
67980;BME280;54760;47.490;19.030;2023-04-27T02:53:12;100327.09;;;6.32;56.77
67980;BME280;54760;47.490;19.030;2023-04-27T02:55:44;100324.78;;;6.30;57.20
67980;BME280;54760;47.490;19.030;2023-04-27T02:58:12;100331.34;;;6.22;57.46
67980;BME280;54760;47.490;19.030;2023-04-27T03:00:37;100330.91;;;6.09;58.10
67980;BME280;54760;47.490;19.030;2023-04-27T03:03:05;100341.75;;;6.06;58.00
67980;BME280;54760;47.490;19.030;2023-04-27T03:05:31;100341.63;;;5.81;58.60
67980;BME280;54760;47.490;19.030;2023-04-27T03:07:57;100339.38;;;5.90;58.43
67980;BME280;54760;47.490;19.030;2023-04-27T03:10:22;100343.62;;;5.91;58.20
67980;BME280;54760;47.490;19.030;2023-04-27T03:12:47;100342.97;;;5.47;59.49
67980;BME280;54760;47.490;19.030;2023-04-27T03:15:13;100343.72;;;5.47;60.00
67980;BME280;54760;47.490;19.030;2023-04-27T03:17:38;100354.66;;;5.58;59.62
67980;BME280;54760;47.490;19.030;2023-04-27T03:20:04;100349.72;;;5.71;59.43
67980;BME280;54760;47.490;19.030;2023-04-27T03:22:33;100345.72;;;5.54;59.89
67980;BME280;54760;47.490;19.030;2023-04-27T03:24:59;100350.41;;;5.60;59.84
67980;BME280;54760;47.490;19.030;2023-04-27T03:27:24;100354.94;;;6.00;58.82
67980;BME280;54760;47.490;19.030;2023-04-27T03:29:50;100352.97;;;5.94;58.75
67980;BME280;54760;47.490;19.030;2023-04-27T03:32:18;100350.62;;;5.92;58.53
67980;BME280;54760;47.490;19.030;2023-04-27T03:34:43;100352.97;;;5.97;58.74
67980;BME280;54760;47.490;19.030;2023-04-27T03:37:09;100352.84;;;5.76;59.20
67980;BME280;54760;47.490;19.030;2023-04-27T03:39:34;100359.72;;;5.63;59.80
67980;BME280;54760;47.490;19.030;2023-04-27T03:41:59;100358.91;;;5.52;60.01
67980;BME280;54760;47.490;19.030;2023-04-27T03:44:26;100359.78;;;5.66;59.48
67980;BME280;54760;47.490;19.030;2023-04-27T03:46:52;100354.09;;;5.89;58.99
67980;BME280;54760;47.490;19.030;2023-04-27T03:49:17;100359.97;;;5.98;58.55
67980;BME280;54760;47.490;19.030;2023-04-27T03:51:42;100363.06;;;5.97;57.71
67980;BME280;54760;47.490;19.030;2023-04-27T03:54:08;100365.31;;;5.84;58.46
67980;BME280;54760;47.490;19.030;2023-04-27T03:56:34;100365.41;;;6.02;57.97
67980;BME280;54760;47.490;19.030;2023-04-27T03:58:59;100369.41;;;5.57;59.82
67980;BME280;54760;47.490;19.030;2023-04-27T04:01:25;100372.87;;;5.57;60.02
67980;BME280;54760;47.490;19.030;2023-04-27T04:03:50;100372.72;;;5.87;58.39
67980;BME280;54760;47.490;19.030;2023-04-27T04:06:16;100373.53;;;5.95;58.00
67980;BME280;54760;47.490;19.030;2023-04-27T04:08:41;100376.16;;;5.84;57.92
67980;BME280;54760;47.490;19.030;2023-04-27T04:11:07;100382.00;;;5.86;58.24
67980;BME280;54760;47.490;19.030;2023-04-27T04:13:32;100390.03;;;5.65;58.80
67980;BME280;54760;47.490;19.030;2023-04-27T04:16:04;100395.28;;;5.44;59.44
67980;BME280;54760;47.490;19.030;2023-04-27T04:18:30;100390.75;;;5.58;58.94
67980;BME280;54760;47.490;19.030;2023-04-27T04:20:56;100395.47;;;5.72;58.42
67980;BME280;54760;47.490;19.030;2023-04-27T04:23:22;100395.38;;;5.58;58.90
67980;BME280;54760;47.490;19.030;2023-04-27T04:25:47;100395.12;;;5.74;58.30
67980;BME280;54760;47.490;19.030;2023-04-27T04:28:13;100402.81;;;5.61;58.70
67980;BME280;54760;47.490;19.030;2023-04-27T04:30:38;100397.84;;;5.77;57.93
67980;BME280;54760;47.490;19.030;2023-04-27T04:33:04;100397.81;;;5.70;58.31
67980;BME280;54760;47.490;19.030;2023-04-27T04:35:30;100404.50;;;5.83;57.83
67980;BME280;54760;47.490;19.030;2023-04-27T04:37:57;100404.72;;;6.15;57.06
67980;BME280;54760;47.490;19.030;2023-04-27T04:40:23;100408.97;;;6.16;56.89
67980;BME280;54760;47.490;19.030;2023-04-27T04:42:48;100407.59;;;6.54;55.56
67980;BME280;54760;47.490;19.030;2023-04-27T04:45:14;100400.66;;;6.71;55.49
67980;BME280;54760;47.490;19.030;2023-04-27T04:47:39;100410.37;;;6.68;55.43
67980;BME280;54760;47.490;19.030;2023-04-27T04:50:06;100408.03;;;6.70;55.69
67980;BME280;54760;47.490;19.030;2023-04-27T04:52:32;100413.13;;;6.82;55.11
67980;BME280;54760;47.490;19.030;2023-04-27T04:54:58;100417.00;;;6.85;55.46
67980;BME280;54760;47.490;19.030;2023-04-27T04:57:23;100410.03;;;6.87;55.73
67980;BME280;54760;47.490;19.030;2023-04-27T04:59:49;100406.16;;;6.99;54.92
67980;BME280;54760;47.490;19.030;2023-04-27T05:02:14;100413.97;;;7.18;53.57
67980;BME280;54760;47.490;19.030;2023-04-27T05:04:39;100413.97;;;7.22;53.29
67980;BME280;54760;47.490;19.030;2023-04-27T05:07:05;100407.75;;;7.21;53.61
67980;BME280;54760;47.490;19.030;2023-04-27T05:09:30;100417.44;;;7.19;54.04
67980;BME280;54760;47.490;19.030;2023-04-27T05:11:56;100415.50;;;7.19;53.84
67980;BME280;54760;47.490;19.030;2023-04-27T05:14:21;100412.03;;;7.22;54.09
67980;BME280;54760;47.490;19.030;2023-04-27T05:16:47;100420.97;;;7.23;53.45
67980;BME280;54760;47.490;19.030;2023-04-27T05:19:13;100415.94;;;7.46;52.78
67980;BME280;54760;47.490;19.030;2023-04-27T05:21:45;100429.16;;;7.51;53.00
67980;BME280;54760;47.490;19.030;2023-04-27T05:24:11;100429.91;;;7.69;51.98
67980;BME280;54760;47.490;19.030;2023-04-27T05:26:37;100427.97;;;7.84;51.40
67980;BME280;54760;47.490;19.030;2023-04-27T05:29:03;100431.81;;;7.97;50.68
67980;BME280;54760;47.490;19.030;2023-04-27T05:31:28;100429.84;;;8.12;49.84
67980;BME280;54760;47.490;19.030;2023-04-27T05:33:53;100437.91;;;8.61;49.03
67980;BME280;54760;47.490;19.030;2023-04-27T05:36:19;100436.25;;;8.82;47.96
67980;BME280;54760;47.490;19.030;2023-04-27T05:38:44;100425.81;;;9.76;45.94
67980;BME280;54760;47.490;19.030;2023-04-27T05:41:10;100436.06;;;10.43;44.35
67980;BME280;54760;47.490;19.030;2023-04-27T05:43:36;100437.75;;;10.34;43.22
67980;BME280;54760;47.490;19.030;2023-04-27T05:46:04;100437.50;;;10.85;41.93
67980;BME280;54760;47.490;19.030;2023-04-27T05:48:30;100440.94;;;10.93;42.20
67980;BME280;54760;47.490;19.030;2023-04-27T05:51:00;100437.34;;;10.66;41.73
67980;BME280;54760;47.490;19.030;2023-04-27T05:53:26;100442.66;;;10.50;43.61
67980;BME280;54760;47.490;19.030;2023-04-27T05:55:51;100449.47;;;10.34;43.21
67980;BME280;54760;47.490;19.030;2023-04-27T05:58:17;100457.09;;;10.16;43.74
67980;BME280;54760;47.490;19.030;2023-04-27T06:00:42;100457.72;;;10.31;42.87
67980;BME280;54760;47.490;19.030;2023-04-27T06:03:08;100455.28;;;11.01;41.19
67980;BME280;54760;47.490;19.030;2023-04-27T06:05:33;100457.41;;;11.16;40.65
67980;BME280;54760;47.490;19.030;2023-04-27T06:07:59;100458.34;;;11.33;40.30
67980;BME280;54760;47.490;19.030;2023-04-27T06:10:24;100459.97;;;11.54;40.55
67980;BME280;54760;47.490;19.030;2023-04-27T06:12:50;100457.47;;;11.90;39.27
67980;BME280;54760;47.490;19.030;2023-04-27T06:15:15;100464.13;;;11.89;38.87
67980;BME280;54760;47.490;19.030;2023-04-27T06:17:41;100458.06;;;11.78;37.76
67980;BME280;54760;47.490;19.030;2023-04-27T06:20:08;100461.81;;;11.87;37.88
67980;BME280;54760;47.490;19.030;2023-04-27T06:22:37;100458.59;;;12.35;36.88
67980;BME280;54760;47.490;19.030;2023-04-27T06:25:06;100460.66;;;12.51;36.78
67980;BME280;54760;47.490;19.030;2023-04-27T06:27:32;100461.13;;;12.46;37.13
67980;BME280;54760;47.490;19.030;2023-04-27T06:29:58;100463.94;;;12.42;36.66
67980;BME280;54760;47.490;19.030;2023-04-27T06:32:23;100466.06;;;13.62;34.88
67980;BME280;54760;47.490;19.030;2023-04-27T06:34:49;100463.78;;;14.06;32.97
67980;BME280;54760;47.490;19.030;2023-04-27T06:37:15;100456.06;;;14.58;31.93
67980;BME280;54760;47.490;19.030;2023-04-27T06:39:44;100456.59;;;15.07;31.75
67980;BME280;54760;47.490;19.030;2023-04-27T06:42:10;100459.72;;;14.68;31.81
67980;BME280;54760;47.490;19.030;2023-04-27T06:44:35;100464.47;;;14.10;32.23
67980;BME280;54760;47.490;19.030;2023-04-27T06:47:01;100463.03;;;13.89;32.37
67980;BME280;54760;47.490;19.030;2023-04-27T06:49:27;100472.75;;;13.45;32.60
67980;BME280;54760;47.490;19.030;2023-04-27T06:51:52;100459.75;;;13.29;33.08
67980;BME280;54760;47.490;19.030;2023-04-27T06:54:18;100465.09;;;13.00;34.02
67980;BME280;54760;47.490;19.030;2023-04-27T06:56:43;100468.88;;;13.07;34.15
67980;BME280;54760;47.490;19.030;2023-04-27T06:59:09;100470.47;;;12.68;34.53
67980;BME280;54760;47.490;19.030;2023-04-27T07:01:35;100462.38;;;12.61;35.14
67980;BME280;54760;47.490;19.030;2023-04-27T07:04:05;100483.53;;;12.64;34.71
67980;BME280;54760;47.490;19.030;2023-04-27T07:06:30;100477.53;;;12.69;34.67
67980;BME280;54760;47.490;19.030;2023-04-27T07:08:57;100478.50;;;12.39;35.26
67980;BME280;54760;47.490;19.030;2023-04-27T07:11:22;100477.13;;;12.51;34.99
67980;BME280;54760;47.490;19.030;2023-04-27T07:13:48;100486.97;;;12.68;35.19
67980;BME280;54760;47.490;19.030;2023-04-27T07:16:14;100481.34;;;12.55;34.33
67980;BME280;54760;47.490;19.030;2023-04-27T07:18:39;100480.78;;;12.64;34.31
67980;BME280;54760;47.490;19.030;2023-04-27T07:21:05;100481.59;;;12.61;33.99
67980;BME280;54760;47.490;19.030;2023-04-27T07:23:31;100478.66;;;12.72;33.66
67980;BME280;54760;47.490;19.030;2023-04-27T07:25:56;100482.66;;;12.87;33.17
67980;BME280;54760;47.490;19.030;2023-04-27T07:28:22;100488.94;;;12.87;33.45
67980;BME280;54760;47.490;19.030;2023-04-27T07:30:47;100489.09;;;12.61;33.85
67980;BME280;54760;47.490;19.030;2023-04-27T07:33:13;100491.75;;;12.64;33.69
67980;BME280;54760;47.490;19.030;2023-04-27T07:35:38;100489.78;;;12.84;33.59
67980;BME280;54760;47.490;19.030;2023-04-27T07:38:03;100485.47;;;13.03;33.34
67980;BME280;54760;47.490;19.030;2023-04-27T07:40:29;100488.41;;;13.48;33.37
67980;BME280;54760;47.490;19.030;2023-04-27T07:42:57;100487.94;;;13.98;38.02
67980;BME280;54760;47.490;19.030;2023-04-27T07:45:22;100485.44;;;14.20;34.55
67980;BME280;54760;47.490;19.030;2023-04-27T07:47:55;100482.81;;;14.29;37.00
67980;BME280;54760;47.490;19.030;2023-04-27T07:50:22;100484.09;;;14.12;32.05
67980;BME280;54760;47.490;19.030;2023-04-27T07:52:49;100475.81;;;14.12;31.48
67980;BME280;54760;47.490;19.030;2023-04-27T07:55:15;100485.69;;;14.25;30.54
67980;BME280;54760;47.490;19.030;2023-04-27T07:57:41;100476.63;;;14.41;31.03
67980;BME280;54760;47.490;19.030;2023-04-27T08:00:07;100472.72;;;14.67;30.89
67980;BME280;54760;47.490;19.030;2023-04-27T08:02:34;100479.72;;;14.27;29.57
67980;BME280;54760;47.490;19.030;2023-04-27T08:04:59;100475.34;;;14.29;27.75
67980;BME280;54760;47.490;19.030;2023-04-27T08:07:27;100478.94;;;14.43;29.11
67980;BME280;54760;47.490;19.030;2023-04-27T08:09:52;100465.00;;;14.62;29.30
67980;BME280;54760;47.490;19.030;2023-04-27T08:12:18;100474.09;;;14.76;28.58
67980;BME280;54760;47.490;19.030;2023-04-27T08:14:44;100473.09;;;14.69;28.37
67980;BME280;54760;47.490;19.030;2023-04-27T08:17:09;100471.66;;;14.36;28.89
67980;BME280;54760;47.490;19.030;2023-04-27T08:19:35;100472.28;;;14.11;29.14
67980;BME280;54760;47.490;19.030;2023-04-27T08:22:01;100477.06;;;14.23;29.37
67980;BME280;54760;47.490;19.030;2023-04-27T08:24:26;100479.56;;;14.18;28.86
67980;BME280;54760;47.490;19.030;2023-04-27T08:26:52;100477.37;;;14.42;28.80
67980;BME280;54760;47.490;19.030;2023-04-27T08:29:17;100482.06;;;14.57;28.38
67980;BME280;54760;47.490;19.030;2023-04-27T08:31:42;100476.50;;;14.73;28.21
67980;BME280;54760;47.490;19.030;2023-04-27T08:34:08;100479.19;;;15.15;27.72
67980;BME280;54760;47.490;19.030;2023-04-27T08:36:33;100476.00;;;15.04;28.43
67980;BME280;54760;47.490;19.030;2023-04-27T08:38:59;100476.34;;;15.06;28.48
67980;BME280;54760;47.490;19.030;2023-04-27T08:41:24;100481.19;;;15.27;28.25
67980;BME280;54760;47.490;19.030;2023-04-27T08:43:50;100477.91;;;15.32;28.06
67980;BME280;54760;47.490;19.030;2023-04-27T08:48:45;100478.78;;;15.29;28.21
67980;BME280;54760;47.490;19.030;2023-04-27T08:51:14;100481.31;;;15.36;28.46
67980;BME280;54760;47.490;19.030;2023-04-27T08:53:48;100484.84;;;15.37;27.95
67980;BME280;54760;47.490;19.030;2023-04-27T08:56:15;100479.97;;;15.15;28.19
67980;BME280;54760;47.490;19.030;2023-04-27T08:58:40;100479.25;;;14.61;28.62
67980;BME280;54760;47.490;19.030;2023-04-27T09:01:07;100474.25;;;14.56;29.40
67980;BME280;54760;47.490;19.030;2023-04-27T09:03:33;100471.16;;;15.21;28.11
67980;BME280;54760;47.490;19.030;2023-04-27T09:06:03;100462.22;;;15.04;28.47
67980;BME280;54760;47.490;19.030;2023-04-27T09:08:43;100462.88;;;15.08;28.61
67980;BME280;54760;47.490;19.030;2023-04-27T09:11:08;100461.91;;;15.27;28.32
67980;BME280;54760;47.490;19.030;2023-04-27T09:13:35;100465.53;;;15.49;28.13
67980;BME280;54760;47.490;19.030;2023-04-27T09:16:02;100463.56;;;15.63;28.18
67980;BME280;54760;47.490;19.030;2023-04-27T09:18:27;100468.53;;;15.55;27.90
67980;BME280;54760;47.490;19.030;2023-04-27T09:20:53;100458.59;;;15.32;28.22
67980;BME280;54760;47.490;19.030;2023-04-27T09:26:01;100454.94;;;15.35;28.29
67980;BME280;54760;47.490;19.030;2023-04-27T09:28:29;100462.34;;;15.64;28.82
67980;BME280;54760;47.490;19.030;2023-04-27T09:31:00;100458.25;;;16.37;27.99
67980;BME280;54760;47.490;19.030;2023-04-27T09:33:27;100453.09;;;16.61;25.33
67980;BME280;54760;47.490;19.030;2023-04-27T09:35:55;100454.22;;;16.51;25.40
67980;BME280;54760;47.490;19.030;2023-04-27T09:38:21;100449.03;;;17.05;27.54
67980;BME280;54760;47.490;19.030;2023-04-27T09:40:48;100442.69;;;17.36;27.78
67980;BME280;54760;47.490;19.030;2023-04-27T09:43:14;100433.28;;;17.73;25.12
67980;BME280;54760;47.490;19.030;2023-04-27T09:45:40;100437.37;;;17.59;24.95
67980;BME280;54760;47.490;19.030;2023-04-27T09:48:06;100444.13;;;17.09;25.79
67980;BME280;54760;47.490;19.030;2023-04-27T09:50:37;100442.84;;;17.01;26.46
67980;BME280;54760;47.490;19.030;2023-04-27T09:53:06;100448.50;;;16.67;26.68
67980;BME280;54760;47.490;19.030;2023-04-27T09:55:39;100443.91;;;16.29;27.08
67980;BME280;54760;47.490;19.030;2023-04-27T10:03:21;100431.59;;;16.21;26.89
67980;BME280;54760;47.490;19.030;2023-04-27T10:08:51;100429.53;;;16.34;27.43
67980;BME280;54760;47.490;19.030;2023-04-27T10:11:17;100426.69;;;16.03;27.31
67980;BME280;54760;47.490;19.030;2023-04-27T10:13:51;100412.78;;;16.81;26.99
67980;BME280;54760;47.490;19.030;2023-04-27T10:16:18;100412.31;;;16.74;26.55
67980;BME280;54760;47.490;19.030;2023-04-27T10:18:52;100407.78;;;17.29;26.63
67980;BME280;54760;47.490;19.030;2023-04-27T10:21:18;100411.75;;;18.04;27.14
67980;BME280;54760;47.490;19.030;2023-04-27T10:23:48;100419.72;;;17.84;25.18
67980;BME280;54760;47.490;19.030;2023-04-27T10:26:26;100411.81;;;17.55;24.90
67980;BME280;54760;47.490;19.030;2023-04-27T10:29:04;100417.06;;;17.53;25.01
67980;BME280;54760;47.490;19.030;2023-04-27T10:31:31;100412.22;;;17.26;25.68
67980;BME280;54760;47.490;19.030;2023-04-27T10:34:14;100422.91;;;16.54;26.38
67980;BME280;54760;47.490;19.030;2023-04-27T10:36:40;100419.72;;;15.99;26.84
67980;BME280;54760;47.490;19.030;2023-04-27T10:39:36;100415.34;;;15.89;27.56
67980;BME280;54760;47.490;19.030;2023-04-27T10:42:03;100419.66;;;15.90;27.55
67980;BME280;54760;47.490;19.030;2023-04-27T10:44:30;100415.38;;;16.32;27.80
67980;BME280;54760;47.490;19.030;2023-04-27T10:46:59;100417.06;;;16.52;27.07
67980;BME280;54760;47.490;19.030;2023-04-27T10:49:29;100413.94;;;16.40;27.32
67980;BME280;54760;47.490;19.030;2023-04-27T10:51:58;100413.06;;;16.53;27.17
67980;BME280;54760;47.490;19.030;2023-04-27T10:54:27;100411.69;;;16.70;27.36
67980;BME280;54760;47.490;19.030;2023-04-27T10:57:00;100410.00;;;16.51;27.06
67980;BME280;54760;47.490;19.030;2023-04-27T10:59:26;100411.31;;;16.89;26.17
67980;BME280;54760;47.490;19.030;2023-04-27T11:01:51;100413.97;;;16.50;26.42
67980;BME280;54760;47.490;19.030;2023-04-27T11:04:17;100416.81;;;16.59;27.14
67980;BME280;54760;47.490;19.030;2023-04-27T11:06:44;100406.53;;;16.37;26.45
67980;BME280;54760;47.490;19.030;2023-04-27T11:09:13;100415.19;;;16.48;26.03
67980;BME280;54760;47.490;19.030;2023-04-27T11:11:43;100401.25;;;16.74;26.57
67980;BME280;54760;47.490;19.030;2023-04-27T11:14:13;100405.09;;;17.16;26.00
67980;BME280;54760;47.490;19.030;2023-04-27T11:16:45;100399.97;;;17.46;25.67
67980;BME280;54760;47.490;19.030;2023-04-27T11:19:10;100402.22;;;17.87;24.75
67980;BME280;54760;47.490;19.030;2023-04-27T11:21:36;100402.50;;;17.80;25.18
67980;BME280;54760;47.490;19.030;2023-04-27T11:24:06;100394.44;;;17.55;24.55
67980;BME280;54760;47.490;19.030;2023-04-27T11:26:32;100397.16;;;18.13;25.29
67980;BME280;54760;47.490;19.030;2023-04-27T11:29:00;100398.66;;;18.05;24.46
67980;BME280;54760;47.490;19.030;2023-04-27T11:31:28;100393.28;;;18.10;24.85
67980;BME280;54760;47.490;19.030;2023-04-27T11:34:02;100389.28;;;17.66;25.59
67980;BME280;54760;47.490;19.030;2023-04-27T11:36:27;100402.75;;;17.55;24.79
67980;BME280;54760;47.490;19.030;2023-04-27T11:38:56;100394.53;;;17.91;24.57
67980;BME280;54760;47.490;19.030;2023-04-27T11:41:32;100393.19;;;17.38;24.68
67980;BME280;54760;47.490;19.030;2023-04-27T11:44:11;100394.75;;;17.48;24.93
67980;BME280;54760;47.490;19.030;2023-04-27T11:46:37;100395.75;;;17.90;25.02
67980;BME280;54760;47.490;19.030;2023-04-27T11:49:06;100394.13;;;17.35;25.12
67980;BME280;54760;47.490;19.030;2023-04-27T11:51:33;100397.59;;;17.84;24.76
67980;BME280;54760;47.490;19.030;2023-04-27T11:54:04;100392.59;;;17.52;24.16
67980;BME280;54760;47.490;19.030;2023-04-27T11:56:38;100394.69;;;17.79;24.54
67980;BME280;54760;47.490;19.030;2023-04-27T11:59:04;100394.19;;;17.71;24.44
67980;BME280;54760;47.490;19.030;2023-04-27T12:01:32;100395.00;;;17.31;24.95
67980;BME280;54760;47.490;19.030;2023-04-27T12:03:58;100390.44;;;17.47;25.03
67980;BME280;54760;47.490;19.030;2023-04-27T12:06:25;100393.59;;;17.67;24.96
67980;BME280;54760;47.490;19.030;2023-04-27T12:08:50;100392.59;;;17.43;25.31
67980;BME280;54760;47.490;19.030;2023-04-27T12:11:16;100385.75;;;17.16;25.38
67980;BME280;54760;47.490;19.030;2023-04-27T12:13:42;100380.53;;;17.18;25.20
67980;BME280;54760;47.490;19.030;2023-04-27T12:16:08;100384.78;;;17.01;25.33
67980;BME280;54760;47.490;19.030;2023-04-27T12:18:33;100388.66;;;17.13;25.58
67980;BME280;54760;47.490;19.030;2023-04-27T12:20:58;100384.94;;;17.07;25.78
67980;BME280;54760;47.490;19.030;2023-04-27T12:23:24;100394.41;;;17.27;25.91
67980;BME280;54760;47.490;19.030;2023-04-27T12:25:49;100384.62;;;17.54;25.17
67980;BME280;54760;47.490;19.030;2023-04-27T12:28:15;100392.22;;;17.22;25.45
67980;BME280;54760;47.490;19.030;2023-04-27T12:30:43;100391.91;;;17.20;25.46
67980;BME280;54760;47.490;19.030;2023-04-27T12:33:09;100386.34;;;17.11;26.01
67980;BME280;54760;47.490;19.030;2023-04-27T12:35:35;100390.22;;;16.83;25.79
67980;BME280;54760;47.490;19.030;2023-04-27T12:38:01;100385.66;;;16.89;26.01
67980;BME280;54760;47.490;19.030;2023-04-27T12:40:28;100384.25;;;17.24;25.64
67980;BME280;54760;47.490;19.030;2023-04-27T12:42:53;100391.31;;;17.25;25.67
67980;BME280;54760;47.490;19.030;2023-04-27T12:45:19;100387.38;;;16.65;25.75
67980;BME280;54760;47.490;19.030;2023-04-27T12:47:44;100391.50;;;16.60;25.92
67980;BME280;54760;47.490;19.030;2023-04-27T12:50:10;100388.34;;;16.71;26.27
67980;BME280;54760;47.490;19.030;2023-04-27T12:52:35;100395.50;;;16.90;25.67
67980;BME280;54760;47.490;19.030;2023-04-27T12:55:01;100385.47;;;17.23;24.98